createdAt,value
2017-12-27T00:00:35.440Z,98.12
2017-12-27T00:05:42.311Z,98.10
2017-12-27T00:10:49.229Z,98.13
2017-12-27T00:15:56.237Z,98.04
2017-12-27T00:21:03.337Z,98.15
2017-12-27T00:26:10.156Z,98.10
2017-12-27T00:31:12.916Z,98.03
2017-12-27T00:36:13.701Z,98.05
2017-12-27T00:41:14.504Z,98.12
2017-12-27T00:46:15.301Z,98.15
2017-12-27T00:51:16.105Z,98.18
2017-12-27T00:56:16.908Z,98.15
2017-12-27T01:01:17.712Z,98.21
2017-12-27T01:06:18.508Z,98.21
2017-12-27T01:11:19.276Z,98.34
2017-12-27T01:16:20.045Z,98.30
2017-12-27T01:21:20.822Z,98.34
2017-12-27T01:26:21.614Z,98.30
2017-12-27T01:31:22.395Z,98.27
2017-12-27T01:36:23.185Z,98.15
2017-12-27T01:41:23.988Z,98.01
2017-12-27T01:46:28.033Z,97.96
2017-12-27T01:51:28.848Z,97.91
2017-12-27T01:56:29.661Z,97.96
2017-12-27T02:01:30.460Z,97.98
2017-12-27T02:06:31.266Z,98.08
2017-12-27T02:11:32.058Z,98.16
2017-12-27T02:16:32.840Z,98.15
2017-12-27T02:21:33.620Z,98.01
2017-12-27T02:26:34.411Z,98.10
2017-12-27T02:31:35.189Z,98.12
2017-12-27T02:36:36.021Z,98.22
2017-12-27T02:41:36.838Z,98.29
2017-12-27T02:46:37.644Z,98.34
2017-12-27T02:51:38.458Z,98.25
2017-12-27T02:56:39.793Z,98.18
2017-12-27T03:01:44.072Z,98.22
2017-12-27T03:06:44.861Z,98.13
2017-12-27T03:11:45.644Z,98.07
2017-12-27T03:16:46.452Z,98.09
2017-12-27T03:21:47.247Z,98.06
2017-12-27T03:26:58.206Z,98.20
2017-12-27T03:31:58.988Z,98.06
2017-12-27T03:36:59.781Z,98.01
2017-12-27T03:42:00.575Z,98.12
2017-12-27T03:47:01.359Z,98.29
2017-12-27T03:52:19.592Z,98.27
2017-12-27T03:57:20.387Z,98.32
2017-12-27T04:02:21.169Z,98.20
2017-12-27T04:07:21.990Z,98.31
2017-12-27T04:12:22.804Z,98.42
2017-12-27T04:17:23.660Z,98.47
2017-12-27T04:22:24.460Z,98.46
2017-12-27T04:27:25.257Z,98.41
2017-12-27T04:32:33.025Z,98.45
2017-12-27T04:37:33.821Z,98.34
2017-12-27T04:42:34.657Z,98.29
2017-12-27T04:47:35.457Z,98.36
2017-12-27T04:52:36.239Z,98.41
2017-12-27T04:57:37.005Z,98.43
2017-12-27T05:02:37.796Z,98.41
2017-12-27T05:07:39.367Z,98.43
2017-12-27T05:18:16.813Z,98.37
2017-12-27T05:23:17.633Z,98.39
2017-12-27T05:28:19.344Z,98.46
2017-12-27T05:33:20.130Z,98.46
2017-12-27T05:38:20.949Z,98.49
2017-12-27T05:43:21.736Z,98.40
2017-12-27T05:48:22.508Z,98.32
2017-12-27T05:53:23.309Z,98.35
2017-12-27T05:58:24.102Z,98.38
2017-12-27T06:03:24.905Z,98.29
2017-12-27T06:13:53.798Z,98.42
2017-12-27T06:18:54.600Z,98.39
2017-12-27T06:23:55.384Z,98.42
2017-12-27T06:28:56.205Z,98.42
2017-12-27T06:39:35.061Z,98.58
2017-12-27T06:44:35.868Z,98.60
2017-12-27T06:49:36.684Z,98.64
2017-12-27T06:54:37.456Z,98.61
2017-12-27T06:59:38.232Z,98.47
2017-12-27T07:04:44.880Z,98.52
2017-12-27T07:09:45.672Z,98.49
2017-12-27T07:14:46.489Z,98.48
2017-12-27T07:19:47.312Z,98.33
2017-12-27T07:24:48.132Z,98.35
2017-12-27T07:41:07.073Z,97.96
2017-12-27T07:46:07.870Z,98.04
2017-12-27T07:51:08.825Z,97.99
2017-12-27T07:56:09.670Z,97.96
2017-12-27T08:01:10.485Z,98.03
2017-12-27T08:06:32.035Z,97.92
2017-12-27T08:11:32.971Z,97.14
2017-12-27T08:16:38.745Z,96.53
2017-12-27T08:21:47.610Z,96.46
2017-12-27T08:32:22.422Z,96.13
2017-12-27T08:37:43.197Z,95.95
2017-12-27T08:53:43.164Z,95.42
2017-12-27T08:58:57.900Z,95.66
2017-12-27T09:04:04.793Z,95.19
2017-12-27T09:09:19.500Z,95.37
2017-12-27T09:14:20.297Z,94.89
2017-12-27T09:19:21.093Z,95.07
2017-12-27T09:24:21.885Z,95.07
2017-12-27T09:29:22.709Z,95.17
2017-12-27T09:34:23.496Z,94.03
2017-12-27T09:39:24.288Z,94.24
2017-12-27T09:44:25.060Z,94.64
2017-12-27T09:49:25.850Z,93.12
2017-12-27T09:54:29.697Z,91.26
2017-12-27T09:59:30.497Z,91.79
2017-12-27T10:04:31.289Z,92.11
2017-12-27T10:09:32.105Z,89.83
2017-12-27T10:14:32.897Z,90.61
2017-12-27T10:19:33.698Z,90.03
2017-12-27T10:24:34.485Z,90.58
2017-12-27T10:29:35.364Z,88.92
2017-12-27T10:34:39.918Z,87.42
2017-12-27T10:39:40.871Z,88.17
2017-12-27T10:44:41.937Z,86.16
2017-12-27T10:49:42.947Z,85.52
2017-12-27T10:54:43.941Z,85.96
2017-12-27T10:59:44.975Z,83.13
2017-12-27T11:04:45.919Z,85.26
2017-12-27T11:09:46.921Z,84.67
2017-12-27T11:14:48.036Z,86.57
2017-12-27T11:19:49.039Z,85.07
2017-12-27T11:24:49.979Z,84.78
2017-12-27T11:29:51.003Z,83.86
2017-12-27T11:34:52.049Z,84.10
2017-12-27T11:39:53.017Z,82.94
2017-12-27T11:44:54.024Z,84.31
2017-12-27T11:49:55.102Z,84.05
2017-12-27T11:54:56.050Z,82.34
2017-12-27T11:59:57.084Z,81.44
2017-12-27T12:04:58.116Z,79.03
2017-12-27T12:09:59.104Z,80.35
2017-12-27T12:15:00.189Z,82.20
2017-12-27T12:20:01.209Z,83.54
2017-12-27T12:25:02.238Z,84.27
2017-12-27T12:30:03.218Z,84.81
2017-12-27T12:35:04.257Z,84.66
2017-12-27T12:40:05.251Z,83.45
2017-12-27T12:45:06.253Z,83.16
2017-12-27T12:50:07.274Z,83.01
2017-12-27T12:55:08.244Z,85.07
2017-12-27T13:00:09.276Z,85.42
2017-12-27T13:05:10.279Z,84.44
2017-12-27T13:10:23.731Z,85.91
2017-12-27T13:15:24.792Z,85.84
2017-12-27T13:20:25.637Z,86.00
2017-12-27T13:25:26.513Z,85.91
2017-12-27T13:30:33.785Z,86.59
2017-12-27T13:35:34.614Z,86.29
2017-12-27T13:40:42.230Z,85.75
2017-12-27T13:45:56.998Z,85.22
2017-12-27T13:56:29.636Z,86.50
2017-12-27T14:01:38.497Z,86.01
2017-12-27T14:12:13.373Z,85.94
2017-12-27T14:17:14.172Z,85.48
2017-12-27T14:22:36.932Z,85.38
2017-12-27T14:27:45.401Z,85.99
2017-12-27T14:32:46.201Z,87.32
2017-12-27T14:37:46.998Z,86.93
2017-12-27T14:42:48.793Z,86.98
2017-12-27T14:47:51.584Z,87.49
2017-12-27T14:52:59.136Z,87.38
2017-12-27T14:58:00.992Z,87.38
2017-12-27T15:03:02.026Z,87.33
2017-12-27T15:08:02.825Z,87.01
2017-12-27T15:13:18.224Z,87.65
2017-12-27T15:18:25.882Z,87.51
2017-12-27T15:23:33.603Z,88.00
2017-12-27T15:28:41.035Z,87.76
2017-12-27T15:33:41.858Z,87.70
2017-12-27T15:38:42.744Z,87.57
2017-12-27T15:43:46.888Z,87.72
2017-12-27T15:48:47.717Z,87.41
2017-12-27T15:54:02.378Z,87.68
2017-12-27T15:59:03.256Z,88.33
2017-12-27T16:04:04.082Z,87.39
2017-12-27T16:09:04.920Z,87.69
2017-12-27T16:14:05.724Z,88.58
2017-12-27T16:19:06.549Z,88.56
2017-12-27T16:24:07.369Z,88.76
2017-12-27T16:29:08.252Z,88.71
2017-12-27T16:34:09.227Z,88.65
2017-12-27T16:39:10.059Z,88.92
2017-12-27T16:44:10.871Z,89.01
2017-12-27T16:49:11.696Z,89.60
2017-12-27T16:54:12.524Z,89.61
2017-12-27T16:59:13.358Z,89.47
2017-12-27T17:04:15.021Z,89.53
2017-12-27T17:09:18.976Z,89.71
2017-12-27T17:14:19.786Z,89.46
2017-12-27T17:19:20.605Z,89.09
2017-12-27T17:24:21.409Z,88.82
2017-12-27T17:29:26.044Z,88.69
2017-12-27T17:34:35.124Z,88.65
2017-12-27T17:39:35.952Z,88.74
2017-12-27T17:44:36.747Z,88.50
2017-12-27T17:49:37.578Z,88.94
2017-12-27T17:54:44.971Z,89.13
2017-12-27T17:59:45.954Z,89.46
2017-12-27T18:04:47.827Z,89.25
2017-12-27T18:09:48.633Z,89.03
2017-12-27T18:14:53.302Z,88.94
2017-12-27T18:19:54.140Z,88.81
2017-12-27T18:24:54.974Z,88.92
2017-12-27T18:29:55.798Z,88.99
2017-12-27T18:34:56.640Z,89.33
2017-12-27T18:39:57.517Z,89.39
2017-12-27T18:44:58.417Z,89.52
2017-12-27T18:49:59.251Z,88.89
2017-12-27T18:55:00.099Z,89.07
2017-12-27T19:00:00.952Z,89.00
2017-12-27T19:05:01.844Z,89.30
2017-12-27T19:10:06.056Z,89.65
2017-12-27T19:15:06.925Z,89.49
2017-12-27T19:20:07.828Z,89.26
2017-12-27T19:25:08.691Z,89.73
2017-12-27T19:30:09.532Z,89.41
2017-12-27T19:35:10.416Z,89.57
2017-12-27T19:40:11.262Z,89.49
2017-12-27T19:45:13.118Z,89.70
2017-12-27T19:50:21.112Z,89.50
2017-12-27T19:55:28.941Z,89.29
2017-12-27T20:00:29.883Z,89.18
2017-12-27T20:05:30.728Z,88.85
2017-12-27T20:10:31.587Z,88.41
2017-12-27T20:15:50.816Z,88.05
2017-12-27T20:20:51.657Z,87.56
2017-12-27T20:25:52.504Z,87.57
2017-12-27T20:30:53.322Z,87.37
2017-12-27T20:35:54.176Z,86.52
2017-12-27T20:40:55.019Z,86.49
2017-12-27T20:51:34.117Z,86.32
2017-12-27T21:07:34.940Z,88.35
2017-12-27T21:12:53.593Z,88.89
2017-12-27T21:17:54.400Z,89.72
2017-12-27T21:22:55.250Z,90.63
2017-12-27T21:27:57.101Z,91.08
2017-12-27T21:32:57.961Z,91.86
2017-12-27T21:43:32.848Z,92.35
2017-12-27T21:48:39.881Z,92.96
2017-12-27T21:53:45.178Z,93.69
2017-12-27T21:58:51.984Z,94.02
2017-12-27T22:03:52.835Z,93.93
2017-12-27T22:08:53.648Z,94.50
2017-12-27T22:13:54.496Z,94.33
2017-12-27T22:18:58.993Z,94.21
2017-12-27T22:23:59.852Z,94.47
2017-12-27T22:29:00.715Z,94.72
2017-12-27T22:34:22.706Z,94.47
2017-12-27T22:39:30.965Z,94.66
2017-12-27T22:44:31.802Z,94.72
2017-12-27T22:49:32.659Z,95.02
2017-12-27T22:54:33.502Z,95.42
2017-12-27T22:59:34.327Z,95.87
2017-12-27T23:04:35.188Z,96.01
2017-12-27T23:09:36.064Z,96.15
2017-12-27T23:14:36.903Z,96.10
2017-12-27T23:19:37.737Z,96.34
2017-12-27T23:24:38.611Z,96.40
2017-12-27T23:29:39.473Z,96.36
2017-12-27T23:34:40.348Z,96.29
2017-12-27T23:39:41.206Z,96.19
2017-12-27T23:44:42.058Z,96.13
2017-12-27T23:49:42.887Z,96.17
2017-12-27T23:54:43.774Z,96.13
2017-12-27T23:59:44.623Z,96.24
